ADDS METAR Data INFO
IDs: Format: Raw Decoded Include TAF

Data at: 0936 UTC 19 Jul 2018

METAR for:KCMH (Columbus Intl, OH, US)
Text:KCMH 190851Z 00000KT 10SM OVC250 18/12 A3007 RMK AO2 SLP176 T01830117 55001
Temperature: 18.3°C ( 65°F)
Dewpoint: 11.7°C ( 53°F) [RH = 65%]
Pressure (altimeter):30.07 inches Hg (1018.4 mb) [Sea level pressure: 1017.6 mb]
Winds:calm
Visibility:10 or more sm (16+ km)
Ceiling:25000 feet AGL
Clouds: overcast cloud deck at 25000 feet AGL